Terminal Aerodrome Forecast
Issued by NWS Goodland, KS

Home | Current Version | Previous Version | Text Only | Print | Product List | Glossary On
Versions: 1 2 3 4 5 6 7 8 9 10 11 12
233
FTUS43 KGLD 261721
TAFGLD
TAF
KGLD 261721Z 2618/2718 17023G32KT P6SM SKC
     FM270500 16019G27KT P6SM FEW130 FEW250 WS020/17050KT
     FM271300 17016KT P6SM FEW080 SCT200 WS014/19030KT
     FM271500 17020G28KT P6SM FEW080 SCT200=

USA.gov is the U.S. government's official web portal to all federal, state and local government web resources and services.